createdAt,value
2018-07-03T00:01:50.591Z,81.87
2018-07-03T00:04:18.798Z,81.25
2018-07-03T00:06:47.073Z,81.08
2018-07-03T00:09:15.345Z,80.31
2018-07-03T00:11:43.629Z,80.68
2018-07-03T00:14:12.010Z,81.57
2018-07-03T00:16:45.664Z,82.18
2018-07-03T00:19:13.881Z,82.21
2018-07-03T00:21:42.352Z,82.71
2018-07-03T00:24:10.393Z,81.80
2018-07-03T00:26:38.702Z,82.38
2018-07-03T00:29:06.987Z,82.83
2018-07-03T00:31:35.473Z,83.79
2018-07-03T00:34:03.833Z,83.05
2018-07-03T00:36:32.204Z,83.12
2018-07-03T00:39:00.505Z,83.13
2018-07-03T00:41:28.965Z,82.94
2018-07-03T00:43:57.254Z,83.87
2018-07-03T00:46:25.538Z,83.14
2018-07-03T00:48:54.010Z,83.18
2018-07-03T00:51:22.208Z,82.48
2018-07-03T00:53:50.657Z,82.22
2018-07-03T00:56:18.825Z,82.97
2018-07-03T00:58:47.313Z,82.95
2018-07-03T01:01:15.582Z,83.69
2018-07-03T01:03:43.866Z,82.95
2018-07-03T01:06:12.249Z,83.08
2018-07-03T01:08:40.617Z,83.12
2018-07-03T01:11:08.989Z,84.04
2018-07-03T01:13:37.264Z,84.50
2018-07-03T01:16:05.845Z,83.51
2018-07-03T01:18:34.325Z,83.70
2018-07-03T01:21:02.722Z,83.12
2018-07-03T01:23:30.877Z,83.29
2018-07-03T01:25:59.160Z,83.10
2018-07-03T01:28:27.533Z,83.22
2018-07-03T01:30:55.797Z,82.94
2018-07-03T01:33:24.093Z,82.89
2018-07-03T01:35:52.473Z,83.41
2018-07-03T01:38:20.734Z,83.70
2018-07-03T01:40:49.023Z,83.33
2018-07-03T01:43:17.398Z,83.05
2018-07-03T01:45:45.568Z,83.57
2018-07-03T01:48:13.493Z,83.80
2018-07-03T01:50:41.814Z,84.89
2018-07-03T01:53:10.095Z,83.89
2018-07-03T01:55:38.365Z,84.34
2018-07-03T01:58:06.945Z,84.22
2018-07-03T02:00:35.326Z,84.06
2018-07-03T02:03:03.606Z,84.46
2018-07-03T02:05:31.985Z,84.29
2018-07-03T02:08:00.366Z,84.49
2018-07-03T02:10:28.733Z,84.57
2018-07-03T02:12:57.101Z,84.46
2018-07-03T02:15:25.386Z,84.70
2018-07-03T02:17:53.753Z,84.04
2018-07-03T02:20:22.189Z,84.57
2018-07-03T02:22:50.528Z,84.92
2018-07-03T02:25:18.792Z,85.95
2018-07-03T02:27:47.070Z,86.75
2018-07-03T02:30:15.350Z,86.47
2018-07-03T02:32:43.718Z,86.47
2018-07-03T02:35:12.096Z,84.68
2018-07-03T02:37:40.469Z,84.50
2018-07-03T02:40:08.859Z,84.09
2018-07-03T02:42:37.238Z,84.75
2018-07-03T02:45:05.606Z,83.61
2018-07-03T02:47:33.991Z,85.05
2018-07-03T02:50:01.921Z,84.65
2018-07-03T02:52:30.238Z,84.07
2018-07-03T02:54:58.492Z,83.71
2018-07-03T02:57:26.805Z,83.48
2018-07-03T02:59:55.159Z,83.10
2018-07-03T03:02:23.543Z,83.49
2018-07-03T03:04:52.013Z,82.80
2018-07-03T03:07:20.261Z,83.38
2018-07-03T03:09:48.597Z,83.35
2018-07-03T03:12:17.050Z,83.07
2018-07-03T03:14:45.322Z,81.82
2018-07-03T03:17:13.607Z,82.74
2018-07-03T03:19:41.770Z,83.04
2018-07-03T03:22:09.771Z,82.89
2018-07-03T03:24:38.123Z,83.67
2018-07-03T03:27:06.496Z,83.60
2018-07-03T03:29:34.406Z,83.32
2018-07-03T03:32:02.846Z,83.99
2018-07-03T03:34:31.026Z,84.13
2018-07-03T03:36:58.990Z,83.96
2018-07-03T03:39:27.258Z,84.72
2018-07-03T03:41:55.528Z,85.03
2018-07-03T03:44:23.446Z,85.87
2018-07-03T03:46:51.868Z,84.61
2018-07-03T03:49:20.163Z,84.11
2018-07-03T03:51:48.337Z,83.83
2018-07-03T03:54:16.601Z,84.88
2018-07-03T03:56:44.873Z,85.60
2018-07-03T03:59:13.354Z,86.16
2018-07-03T04:01:41.529Z,86.18
2018-07-03T04:04:10.006Z,87.37
2018-07-03T04:06:38.177Z,87.21
2018-07-03T04:09:08.117Z,87.60
2018-07-03T04:11:36.378Z,86.78
2018-07-03T04:14:04.758Z,86.29
2018-07-03T04:16:33.030Z,86.34
2018-07-03T04:19:01.401Z,85.79
2018-07-03T04:21:29.581Z,86.66
2018-07-03T04:23:58.765Z,86.71
2018-07-03T04:26:26.948Z,85.33
2018-07-03T04:28:55.127Z,83.75
2018-07-03T04:31:23.402Z,84.52
2018-07-03T04:33:51.573Z,86.02
2018-07-03T04:36:20.063Z,86.41
2018-07-03T04:38:48.332Z,86.21
2018-07-03T04:41:16.600Z,83.59
2018-07-03T04:43:44.882Z,82.37
2018-07-03T04:46:13.046Z,83.40
2018-07-03T04:48:41.330Z,81.89
2018-07-03T04:51:09.702Z,81.51
2018-07-03T04:53:38.088Z,81.02
2018-07-03T04:56:06.258Z,81.04
2018-07-03T04:58:34.525Z,80.97
2018-07-03T05:01:02.603Z,82.62
2018-07-03T05:03:30.878Z,81.60
2018-07-03T05:05:59.037Z,81.87
2018-07-03T05:08:27.334Z,82.70
2018-07-03T05:10:55.601Z,82.52
2018-07-03T05:13:24.083Z,82.02
2018-07-03T05:15:52.352Z,82.58
2018-07-03T05:18:20.839Z,82.74
2018-07-03T05:20:49.106Z,82.11
2018-07-03T05:23:17.394Z,81.53
2018-07-03T05:25:45.658Z,80.55
2018-07-03T05:28:14.138Z,80.37
2018-07-03T05:30:42.520Z,81.04
2018-07-03T05:33:10.888Z,79.12
2018-07-03T05:35:39.270Z,79.62
2018-07-03T05:38:07.541Z,79.55
2018-07-03T05:40:35.824Z,79.90
2018-07-03T05:43:04.003Z,79.19
2018-07-03T05:45:32.278Z,78.97
2018-07-03T05:48:00.653Z,78.69
2018-07-03T05:50:28.927Z,77.80
2018-07-03T05:52:57.196Z,77.39
2018-07-03T05:55:25.582Z,78.85
2018-07-03T05:57:53.858Z,77.38
2018-07-03T06:00:22.229Z,76.92
2018-07-03T06:02:50.306Z,76.95
2018-07-03T06:05:18.679Z,77.79
2018-07-03T06:07:46.953Z,77.47
2018-07-03T06:10:15.441Z,77.19
2018-07-03T06:12:43.712Z,77.11
2018-07-03T06:15:12.099Z,73.95
2018-07-03T06:17:40.170Z,73.67
2018-07-03T06:20:09.362Z,75.69
2018-07-03T06:22:37.630Z,75.39
2018-07-03T06:25:06.002Z,74.50
2018-07-03T06:27:34.309Z,74.77
2018-07-03T06:30:02.875Z,74.09
2018-07-03T06:32:31.246Z,75.00
2018-07-03T06:34:59.625Z,74.01
2018-07-03T06:37:27.929Z,73.51
2018-07-03T06:39:56.265Z,73.88
2018-07-03T06:42:24.545Z,73.70
2018-07-03T06:44:52.850Z,74.59
2018-07-03T06:47:21.151Z,75.11
2018-07-03T06:49:49.384Z,72.35
2018-07-03T06:52:17.658Z,72.05
2018-07-03T06:54:45.735Z,72.21
2018-07-03T06:57:13.999Z,73.36
2018-07-03T06:59:42.274Z,71.69
2018-07-03T07:02:10.165Z,72.75
2018-07-03T07:04:38.417Z,72.38
2018-07-03T07:07:06.903Z,73.15
2018-07-03T07:09:35.516Z,72.31
2018-07-03T07:12:03.858Z,72.00
2018-07-03T07:14:32.237Z,70.56
2018-07-03T07:17:00.621Z,69.51
2018-07-03T07:19:29.090Z,68.27
2018-07-03T07:21:57.374Z,68.53
2018-07-03T07:24:25.750Z,68.64
2018-07-03T07:26:53.921Z,65.97
2018-07-03T07:29:22.302Z,67.38
2018-07-03T07:31:50.678Z,68.79
2018-07-03T07:34:19.050Z,67.45
2018-07-03T07:36:47.542Z,67.72
2018-07-03T07:39:15.910Z,66.63
2018-07-03T07:41:44.181Z,66.84
2018-07-03T07:44:12.557Z,68.14
2018-07-03T07:46:40.952Z,69.65
2018-07-03T07:49:09.314Z,68.59
2018-07-03T07:51:37.706Z,67.94
2018-07-03T07:54:06.183Z,67.24
2018-07-03T07:56:34.654Z,66.29
2018-07-03T07:59:02.938Z,65.13
2018-07-03T08:01:31.196Z,65.35
2018-07-03T08:03:59.527Z,66.68
2018-07-03T08:06:27.895Z,63.53
2018-07-03T08:08:56.347Z,64.12
2018-07-03T08:11:24.924Z,63.04
2018-07-03T08:13:53.333Z,64.17
2018-07-03T08:16:21.681Z,63.66
2018-07-03T08:18:49.954Z,62.99
2018-07-03T08:21:18.370Z,63.28
2018-07-03T08:23:46.713Z,62.53
2018-07-03T08:26:15.099Z,60.98
2018-07-03T08:28:43.387Z,60.87
2018-07-03T08:31:11.859Z,59.03
2018-07-03T08:33:40.468Z,60.22
2018-07-03T08:36:09.074Z,59.87
2018-07-03T08:38:37.605Z,57.40
2018-07-03T08:41:06.467Z,58.46
2018-07-03T08:43:34.772Z,59.31
2018-07-03T08:46:03.234Z,59.85
2018-07-03T08:48:31.556Z,59.31
2018-07-03T08:50:59.993Z,56.64
2018-07-03T08:53:28.473Z,57.22
2018-07-03T08:55:56.537Z,58.32
2018-07-03T08:58:24.813Z,58.41
2018-07-03T09:00:53.250Z,57.95
2018-07-03T09:03:21.682Z,58.61
2018-07-03T09:05:50.050Z,55.58
2018-07-03T09:08:18.328Z,58.36
2018-07-03T09:10:46.305Z,57.57
2018-07-03T09:13:14.817Z,55.94
2018-07-03T09:15:43.262Z,57.37
2018-07-03T09:18:11.275Z,57.65
2018-07-03T09:20:39.710Z,57.90
2018-07-03T09:23:08.083Z,56.26
2018-07-03T09:25:36.362Z,57.04
2018-07-03T09:28:04.845Z,55.26
2018-07-03T09:30:33.316Z,56.63
2018-07-03T09:33:01.598Z,55.09
2018-07-03T09:35:30.083Z,57.37
2018-07-03T09:37:58.450Z,55.29
2018-07-03T09:40:26.947Z,56.63
2018-07-03T09:42:55.253Z,56.64
2018-07-03T09:45:23.790Z,56.16
2018-07-03T09:47:52.278Z,56.60
2018-07-03T09:50:20.537Z,56.15
2018-07-03T09:52:48.922Z,56.60
2018-07-03T09:55:17.207Z,55.74
2018-07-03T09:57:45.734Z,56.53
2018-07-03T10:00:13.700Z,55.90
2018-07-03T10:02:41.613Z,55.27
2018-07-03T10:05:09.517Z,56.18
2018-07-03T10:07:37.410Z,55.15
2018-07-03T10:10:05.426Z,56.85
2018-07-03T10:12:33.316Z,55.89
2018-07-03T10:15:01.322Z,55.52
2018-07-03T10:17:29.253Z,56.13
2018-07-03T10:19:57.125Z,55.43
2018-07-03T10:22:25.034Z,55.68
2018-07-03T10:24:52.918Z,55.95
2018-07-03T10:27:20.824Z,55.11
2018-07-03T10:29:48.838Z,55.33
2018-07-03T10:32:16.726Z,55.79
2018-07-03T10:34:45.019Z,55.70
2018-07-03T10:37:13.275Z,56.24
2018-07-03T10:39:41.546Z,54.81
2018-07-03T10:42:09.831Z,53.58
2018-07-03T10:44:38.301Z,56.13
2018-07-03T10:47:06.689Z,53.95
2018-07-03T10:49:34.952Z,55.41
2018-07-03T10:52:03.233Z,54.92
2018-07-03T10:54:31.547Z,55.72
2018-07-03T10:56:59.991Z,54.11
2018-07-03T10:59:28.190Z,54.90
2018-07-03T11:01:56.644Z,48.69
2018-07-03T11:04:25.026Z,49.49
2018-07-03T11:06:53.396Z,54.03
2018-07-03T11:09:21.580Z,50.61
2018-07-03T11:11:49.878Z,53.69
2018-07-03T11:14:18.230Z,54.29
2018-07-03T11:16:46.398Z,51.68
2018-07-03T11:19:14.678Z,54.10
2018-07-03T11:21:43.059Z,51.94
2018-07-03T11:24:11.543Z,51.55
2018-07-03T11:26:39.815Z,53.60
2018-07-03T11:29:08.191Z,53.95
2018-07-03T11:31:36.566Z,49.70
2018-07-03T11:34:04.834Z,52.49
2018-07-03T11:36:32.913Z,51.43
2018-07-03T11:39:01.302Z,53.42
2018-07-03T11:41:29.669Z,50.98
2018-07-03T11:43:57.948Z,51.87
2018-07-03T11:46:26.321Z,52.10
2018-07-03T11:48:54.702Z,50.96
2018-07-03T11:51:23.183Z,53.15
2018-07-03T11:53:51.345Z,53.71
2018-07-03T11:56:19.729Z,51.24
2018-07-03T11:58:48.089Z,53.52
2018-07-03T12:01:16.519Z,53.19
2018-07-03T12:03:44.754Z,51.91
2018-07-03T12:06:12.934Z,49.38
2018-07-03T12:08:41.301Z,53.95
2018-07-03T12:11:09.487Z,52.09
2018-07-03T12:13:37.960Z,49.20
2018-07-03T12:16:06.242Z,50.32
2018-07-03T12:18:40.080Z,49.68
2018-07-03T12:21:08.402Z,51.66
2018-07-03T12:23:36.897Z,52.45
2018-07-03T12:26:05.462Z,51.21
2018-07-03T12:28:33.761Z,51.42
2018-07-03T12:31:02.143Z,51.45
2018-07-03T12:33:30.410Z,50.58
2018-07-03T12:35:58.777Z,54.12
2018-07-03T12:38:27.034Z,51.55
2018-07-03T12:40:55.459Z,51.60
2018-07-03T12:43:23.819Z,53.97
2018-07-03T12:45:52.102Z,52.91
2018-07-03T12:48:20.261Z,51.09
2018-07-03T12:50:48.575Z,53.21
2018-07-03T12:53:16.852Z,51.24
2018-07-03T12:55:45.406Z,53.41
2018-07-03T12:58:13.786Z,52.18
2018-07-03T13:00:41.853Z,53.27
2018-07-03T13:03:10.131Z,53.35
2018-07-03T13:05:38.611Z,51.07
2018-07-03T13:08:06.627Z,51.25
2018-07-03T13:10:35.054Z,53.25
2018-07-03T13:13:03.442Z,53.21
2018-07-03T13:15:31.393Z,52.09
2018-07-03T13:18:04.130Z,50.54
2018-07-03T13:20:32.453Z,49.88
2018-07-03T13:23:00.729Z,50.21
2018-07-03T13:25:29.205Z,53.75
2018-07-03T13:27:57.584Z,52.14
2018-07-03T13:30:25.862Z,50.02
2018-07-03T13:32:54.719Z,53.73
2018-07-03T13:35:23.130Z,52.38
2018-07-03T13:37:51.609Z,50.16
2018-07-03T13:40:19.989Z,50.33
2018-07-03T13:42:48.246Z,50.11
2018-07-03T13:45:16.176Z,50.65
2018-07-03T13:47:44.605Z,53.68
2018-07-03T13:50:12.790Z,53.23
2018-07-03T13:52:41.064Z,49.73
2018-07-03T13:55:09.342Z,52.63
2018-07-03T13:57:37.724Z,52.97
2018-07-03T14:00:06.544Z,52.73
2018-07-03T14:02:34.990Z,50.34
2018-07-03T14:05:03.357Z,50.17
2018-07-03T14:07:31.837Z,50.08
2018-07-03T14:10:00.184Z,49.94
2018-07-03T14:12:28.593Z,49.98
2018-07-03T14:14:56.980Z,50.14
2018-07-03T14:17:25.357Z,50.01
2018-07-03T14:19:53.626Z,50.74
2018-07-03T14:22:22.003Z,50.68
2018-07-03T14:24:50.172Z,53.04
2018-07-03T14:27:18.449Z,49.81
2018-07-03T14:29:46.830Z,50.05
2018-07-03T14:32:15.319Z,51.46
2018-07-03T14:34:43.685Z,53.73
2018-07-03T14:37:12.082Z,53.18
2018-07-03T14:39:40.351Z,54.00
2018-07-03T14:42:08.727Z,53.72
2018-07-03T14:44:36.909Z,53.49
2018-07-03T14:47:04.855Z,52.86
2018-07-03T14:49:33.339Z,52.17
2018-07-03T14:52:01.622Z,53.36
2018-07-03T14:54:30.002Z,53.56
2018-07-03T14:56:58.483Z,52.48
2018-07-03T14:59:26.957Z,52.27
2018-07-03T15:01:55.218Z,52.37
2018-07-03T15:04:23.517Z,52.55
2018-07-03T15:06:51.777Z,53.27
2018-07-03T15:09:20.070Z,51.72
2018-07-03T15:11:48.538Z,53.89
2018-07-03T15:14:16.817Z,51.65
2018-07-03T15:16:45.402Z,52.02
2018-07-03T15:19:19.098Z,53.75
2018-07-03T15:21:47.482Z,53.39
2018-07-03T15:24:15.758Z,53.49
2018-07-03T15:26:44.025Z,53.52
2018-07-03T15:29:12.514Z,52.76
2018-07-03T15:31:40.994Z,53.30
2018-07-03T15:34:10.129Z,53.38
2018-07-03T15:36:38.345Z,52.93
2018-07-03T15:39:09.921Z,53.08
2018-07-03T15:41:38.386Z,53.51
2018-07-03T15:44:17.630Z,52.48
2018-07-03T15:46:45.888Z,52.88
2018-07-03T15:49:14.321Z,54.73
2018-07-03T15:51:42.858Z,52.86
2018-07-03T15:54:10.933Z,53.54
2018-07-03T15:56:39.301Z,53.99
2018-07-03T15:59:07.785Z,53.71
2018-07-03T16:01:35.687Z,54.27
2018-07-03T16:04:14.533Z,54.46
2018-07-03T16:07:07.430Z,54.11
2018-07-03T16:09:35.730Z,54.92
2018-07-03T16:12:04.085Z,54.44
2018-07-03T16:14:32.457Z,56.02
2018-07-03T16:17:00.742Z,55.15
2018-07-03T16:19:34.598Z,55.19
2018-07-03T16:22:02.931Z,55.58
2018-07-03T16:24:31.407Z,56.34
2018-07-03T16:26:59.782Z,57.25
2018-07-03T16:29:28.058Z,57.09
2018-07-03T16:31:56.438Z,57.38
2018-07-03T16:34:24.810Z,57.84
2018-07-03T16:36:53.234Z,57.48
2018-07-03T16:39:21.660Z,57.29
2018-07-03T16:41:49.847Z,57.58
2018-07-03T16:44:18.317Z,57.48
2018-07-03T16:46:46.705Z,57.72
2018-07-03T16:49:14.979Z,58.17
2018-07-03T16:51:43.359Z,57.71
2018-07-03T16:54:11.725Z,58.15
2018-07-03T16:56:40.016Z,58.19
2018-07-03T16:59:08.385Z,57.90
2018-07-03T17:01:36.553Z,57.62
2018-07-03T17:04:04.837Z,58.22
2018-07-03T17:06:33.415Z,57.63
2018-07-03T17:09:01.854Z,58.59
2018-07-03T17:11:30.075Z,58.83
2018-07-03T17:13:58.174Z,58.97
2018-07-03T17:16:26.634Z,58.48
2018-07-03T17:19:00.357Z,59.38
2018-07-03T17:21:28.704Z,58.99
2018-07-03T17:23:56.878Z,58.91
2018-07-03T17:26:25.255Z,58.70
2018-07-03T17:28:53.427Z,58.21
2018-07-03T17:31:21.603Z,57.87
2018-07-03T17:33:49.919Z,57.41
2018-07-03T17:36:17.946Z,58.65
2018-07-03T17:38:46.230Z,57.74
2018-07-03T17:41:25.559Z,57.04
2018-07-03T17:44:07.248Z,58.55
2018-07-03T17:46:35.522Z,56.43
2018-07-03T17:49:03.694Z,57.76
2018-07-03T17:51:32.175Z,57.18
2018-07-03T17:54:00.653Z,56.40
2018-07-03T17:56:28.602Z,57.16
2018-07-03T17:58:56.910Z,57.40
2018-07-03T18:01:25.749Z,56.90
2018-07-03T18:03:53.673Z,58.71
2018-07-03T18:06:22.138Z,57.97
2018-07-03T18:08:50.800Z,57.82
2018-07-03T18:11:19.145Z,59.58
2018-07-03T18:13:47.465Z,60.48
2018-07-03T18:16:15.954Z,59.34
2018-07-03T18:18:43.870Z,60.10
2018-07-03T18:21:12.636Z,58.75
2018-07-03T18:23:41.134Z,57.81
2018-07-03T18:26:09.127Z,58.18
2018-07-03T18:28:37.439Z,59.29
2018-07-03T18:31:05.925Z,60.26
2018-07-03T18:33:40.950Z,59.47
2018-07-03T18:36:09.328Z,59.59
2018-07-03T18:38:37.609Z,60.19
2018-07-03T18:41:05.969Z,60.95
2018-07-03T18:43:34.246Z,61.68
2018-07-03T18:46:02.530Z,62.39
2018-07-03T18:48:30.630Z,61.08
2018-07-03T18:50:58.972Z,60.33
2018-07-03T18:53:27.350Z,60.52
2018-07-03T18:55:55.445Z,61.52
2018-07-03T18:58:23.806Z,63.03
2018-07-03T19:00:51.977Z,63.29
2018-07-03T19:03:20.079Z,63.43
2018-07-03T19:05:48.459Z,63.25
2018-07-03T19:08:16.679Z,64.09
2018-07-03T19:10:45.181Z,64.40
2018-07-03T19:13:13.562Z,64.62
2018-07-03T19:15:41.939Z,65.75
2018-07-03T19:18:10.181Z,66.05
2018-07-03T19:20:38.577Z,64.76
2018-07-03T19:23:07.069Z,65.04
2018-07-03T19:25:35.347Z,64.99
2018-07-03T19:28:03.748Z,65.33
2018-07-03T19:30:32.075Z,64.99
2018-07-03T19:33:00.378Z,65.98
2018-07-03T19:35:28.654Z,65.67
2018-07-03T19:37:56.831Z,66.46
2018-07-03T19:40:25.410Z,66.23
2018-07-03T19:43:32.423Z,66.16
2018-07-03T19:46:01.915Z,66.13
2018-07-03T19:48:30.074Z,65.46
2018-07-03T19:50:58.467Z,65.64
2018-07-03T19:53:26.722Z,66.78
2018-07-03T19:55:56.215Z,67.56
2018-07-03T19:58:24.492Z,68.18
2018-07-03T20:00:53.853Z,68.26
2018-07-03T20:03:22.282Z,68.88
2018-07-03T20:05:50.622Z,69.42
2018-07-03T20:08:19.029Z,70.17
2018-07-03T20:10:47.415Z,69.91
2018-07-03T20:13:16.771Z,70.04
2018-07-03T20:15:45.198Z,70.14
2018-07-03T20:18:14.134Z,71.50
2018-07-03T20:20:42.459Z,71.88
2018-07-03T20:23:10.617Z,72.62
2018-07-03T20:25:39.369Z,72.74
2018-07-03T20:28:08.111Z,73.04
2018-07-03T20:30:36.272Z,73.73
2018-07-03T20:33:04.558Z,74.21
2018-07-03T20:35:32.825Z,74.63
2018-07-03T20:38:03.162Z,75.47
2018-07-03T20:40:38.802Z,75.32
2018-07-03T20:43:07.181Z,75.01
2018-07-03T20:45:35.458Z,75.00
2018-07-03T20:48:03.939Z,74.59
2018-07-03T20:50:32.106Z,74.67
2018-07-03T20:53:00.591Z,75.09
2018-07-03T20:55:28.866Z,75.53
2018-07-03T20:57:57.141Z,75.44
2018-07-03T21:00:25.420Z,75.62
2018-07-03T21:02:53.686Z,76.72
2018-07-03T21:05:21.966Z,76.52
2018-07-03T21:07:49.942Z,76.99
2018-07-03T21:10:18.313Z,77.11
2018-07-03T21:12:46.651Z,76.99
2018-07-03T21:15:15.082Z,77.55
2018-07-03T21:17:43.348Z,78.24
2018-07-03T21:20:11.614Z,78.78
2018-07-03T21:22:39.801Z,78.58
2018-07-03T21:25:08.226Z,78.19
2018-07-03T21:27:36.450Z,78.10
2018-07-03T21:30:05.133Z,78.38
2018-07-03T21:32:33.511Z,78.31
2018-07-03T21:35:01.903Z,77.85
2018-07-03T21:37:30.419Z,79.09
2018-07-03T21:39:58.860Z,78.58
2018-07-03T21:42:27.517Z,78.77
2018-07-03T21:44:55.910Z,78.55
2018-07-03T21:47:24.231Z,78.07
2018-07-03T21:49:52.562Z,77.96
2018-07-03T21:52:20.876Z,79.11
2018-07-03T21:54:49.168Z,79.16
2018-07-03T21:57:17.546Z,78.32
2018-07-03T21:59:46.022Z,78.48
2018-07-03T22:02:13.999Z,78.40
2018-07-03T22:04:42.478Z,77.96
2018-07-03T22:07:10.739Z,77.63
2018-07-03T22:09:38.810Z,77.94
2018-07-03T22:12:07.204Z,78.07
2018-07-03T22:14:37.990Z,78.35
2018-07-03T22:17:06.806Z,78.69
2018-07-03T22:19:35.147Z,78.85
2018-07-03T22:22:03.570Z,78.60
2018-07-03T22:24:32.403Z,78.80
2018-07-03T22:27:00.729Z,78.21
2018-07-03T22:29:29.121Z,78.73
2018-07-03T22:31:57.390Z,78.93
2018-07-03T22:34:25.661Z,78.60
2018-07-03T22:36:54.242Z,79.34
2018-07-03T22:39:22.835Z,78.88
2018-07-03T22:41:51.202Z,78.31
2018-07-03T22:44:19.785Z,78.32
2018-07-03T22:46:48.271Z,78.45
2018-07-03T22:49:16.757Z,77.92
2018-07-03T22:51:45.123Z,77.97
2018-07-03T22:54:13.500Z,77.73
2018-07-03T22:56:41.863Z,78.66
2018-07-03T22:59:10.246Z,78.95
2018-07-03T23:01:38.697Z,79.37
2018-07-03T23:04:07.026Z,78.39
2018-07-03T23:06:35.404Z,78.54
2018-07-03T23:09:05.514Z,79.16
2018-07-03T23:11:33.777Z,79.53
2018-07-03T23:14:02.170Z,79.83
2018-07-03T23:16:30.642Z,79.98
2018-07-03T23:18:58.922Z,80.39
2018-07-03T23:21:27.302Z,80.06
2018-07-03T23:23:55.566Z,80.38
2018-07-03T23:26:23.833Z,80.34
2018-07-03T23:28:52.229Z,79.84
2018-07-03T23:31:20.700Z,80.05
2018-07-03T23:33:48.982Z,81.00
2018-07-03T23:36:17.420Z,81.05
2018-07-03T23:38:45.730Z,80.48
2018-07-03T23:41:13.882Z,79.92
2018-07-03T23:43:42.285Z,80.05
2018-07-03T23:46:09.121Z,80.56
2018-07-03T23:48:54.510Z,81.00
2018-07-03T23:51:39.872Z,80.90
2018-07-03T23:54:25.372Z,80.64
2018-07-03T23:57:10.733Z,80.08
2018-07-03T23:59:56.097Z,79.97
